Time;durP1;ratioP1;P1;durP2;ratioP2;P2;SDS_P1;SDS_P2;PMS_P1;PMS_P2;Temp;Humidity;BMP_temperature;BMP_pressure;BME280_temperature;BME280_humidity;BME280_pressure;Samples;Min_cycle;Max_cycle;Signal;HPM_P1;HPM_P2
2021/08/27 00:01:40;;;;;;;0.30;0.30;;;12.40;99.90;;;;;;5054794;28;20510;-70
2021/08/27 00:04:05;;;;;;;0.30;0.30;;;12.30;99.90;;;;;;5055145;28;20216;-68
2021/08/27 00:06:31;;;;;;;0.30;0.30;;;12.20;99.90;;;;;;5056022;28;20198;-70
2021/08/27 00:08:58;;;;;;;0.30;0.30;;;12.10;99.90;;;;;;5055517;28;20170;-70
2021/08/27 00:11:24;;;;;;;0.30;0.30;;;12.00;99.90;;;;;;5055315;28;20431;-68
2021/08/27 00:13:50;;;;;;;0.30;0.30;;;11.90;99.90;;;;;;5055608;28;20215;-71
2021/08/27 00:16:16;;;;;;;0.30;0.30;;;11.80;99.90;;;;;;5055446;28;20182;-70
2021/08/27 00:18:41;;;;;;;0.30;0.30;;;11.70;99.90;;;;;;5055433;28;20170;-69
2021/08/27 00:21:07;;;;;;;0.30;0.30;;;11.50;99.90;;;;;;5055186;28;20182;-71
2021/08/27 00:23:33;;;;;;;0.30;0.30;;;11.50;99.90;;;;;;5055234;28;20405;-69
2021/08/27 00:25:59;;;;;;;0.30;0.30;;;11.50;99.90;;;;;;5055280;28;20218;-71
2021/08/27 00:28:24;;;;;;;0.30;0.30;;;11.50;99.90;;;;;;5053782;28;20426;-71
2021/08/27 00:30:50;;;;;;;0.30;0.30;;;11.50;99.90;;;;;;5054956;28;20247;-70
2021/08/27 00:33:16;;;;;;;0.30;0.30;;;11.50;99.90;;;;;;5053871;28;20204;-70
2021/08/27 00:35:41;;;;;;;0.30;0.30;;;11.60;99.90;;;;;;5055000;28;20401;-70
2021/08/27 00:38:14;;;;;;;0.30;0.30;;;11.50;99.90;;;;;;5055241;28;20249;-68
2021/08/27 00:40:40;;;;;;;0.30;0.30;;;11.60;99.90;;;;;;5054884;28;20583;-68
2021/08/27 00:43:05;;;;;;;0.30;0.30;;;11.70;99.90;;;;;;5055019;28;20269;-69
2021/08/27 00:45:31;;;;;;;0.30;0.30;;;11.70;99.90;;;;;;5055021;28;20431;-71
2021/08/27 00:47:57;;;;;;;0.30;0.30;;;11.80;99.90;;;;;;5052903;28;20295;-68
2021/08/27 00:50:23;;;;;;;0.30;0.30;;;11.90;99.90;;;;;;5054553;28;20202;-70
2021/08/27 00:52:48;;;;;;;0.30;0.30;;;12.00;99.90;;;;;;5054754;28;20405;-69
2021/08/27 00:55:14;;;;;;;0.30;0.30;;;12.10;99.90;;;;;;5054551;28;20257;-69
2021/08/27 00:57:39;;;;;;;0.30;0.30;;;12.10;99.90;;;;;;5053103;28;20201;-67
2021/08/27 01:00:06;;;;;;;0.30;0.30;;;12.10;99.90;;;;;;5054593;28;20209;-70
2021/08/27 01:02:32;;;;;;;0.30;0.30;;;12.10;99.90;;;;;;5052947;28;20635;-70
2021/08/27 01:04:58;;;;;;;0.30;0.30;;;12.00;99.90;;;;;;5054452;28;20204;-67
2021/08/27 01:07:57;;;;;;;0.30;0.30;;;11.80;99.90;;;;;;5054321;28;20229;-68
2021/08/27 01:10:31;;;;;;;0.30;0.30;;;11.90;99.90;;;;;;5054088;28;20198;-68
2021/08/27 01:13:27;;;;;;;0.30;0.30;;;12.00;99.90;;;;;;5054731;28;20232;-71
2021/08/27 01:16:08;;;;;;;0.30;0.30;;;12.00;99.90;;;;;;5054273;28;20636;-69
2021/08/27 01:19:09;;;;;;;0.30;0.30;;;12.00;99.90;;;;;;5052908;28;20252;-70
2021/08/27 01:22:08;;;;;;;0.30;0.30;;;11.90;99.90;;;;;;4995745;28;20206;-70
2021/08/27 01:24:35;;;;;;;0.30;0.30;;;12.00;99.90;;;;;;5052963;28;20543;-69
2021/08/27 01:27:04;;;;;;;0.40;0.40;;;11.90;99.90;;;;;;5053953;28;20194;-69
2021/08/27 01:30:01;;;;;;;0.30;0.30;;;11.70;99.90;;;;;;5052616;28;20339;-70
2021/08/27 01:33:06;;;;;;;0.30;0.30;;;11.30;99.90;;;;;;5053904;28;20667;-70
2021/08/27 01:35:34;;;;;;;0.30;0.30;;;11.30;99.90;;;;;;5044659;28;20244;-69
2021/08/27 01:38:06;;;;;;;0.30;0.30;;;11.40;99.90;;;;;;5053814;28;20195;-69
2021/08/27 01:40:33;;;;;;;0.30;0.30;;;11.40;99.90;;;;;;5053896;28;20232;-69
2021/08/27 01:43:02;;;;;;;0.30;0.30;;;11.40;99.90;;;;;;5054000;28;20174;-71
2021/08/27 01:45:30;;;;;;;0.30;0.30;;;11.40;99.90;;;;;;5053682;28;20232;-68
2021/08/27 01:47:55;;;;;;;0.30;0.30;;;11.30;99.90;;;;;;5053588;28;20262;-68
2021/08/27 01:50:22;;;;;;;0.30;0.30;;;11.20;99.90;;;;;;5052294;28;20260;-69
2021/08/27 01:52:50;;;;;;;0.30;0.30;;;11.20;99.90;;;;;;5053943;28;20408;-70
2021/08/27 01:55:16;;;;;;;0.30;0.30;;;11.10;99.90;;;;;;5053611;28;20658;-69
2021/08/27 01:57:43;;;;;;;0.30;0.30;;;11.00;99.90;;;;;;5053369;28;20209;-68
2021/08/27 02:00:10;;;;;;;0.30;0.30;;;10.90;99.90;;;;;;5052068;28;20186;-70
2021/08/27 02:02:38;;;;;;;0.30;0.30;;;11.00;99.90;;;;;;5053595;28;20189;-68
2021/08/27 02:05:06;;;;;;;0.30;0.30;;;11.00;99.90;;;;;;5054035;28;20170;-69
2021/08/27 02:07:32;;;;;;;0.30;0.30;;;11.10;99.90;;;;;;5053455;28;20186;-70
2021/08/27 02:09:58;;;;;;;0.30;0.30;;;11.10;99.90;;;;;;5053507;28;20202;-68
2021/08/27 02:12:25;;;;;;;0.30;0.30;;;11.10;99.90;;;;;;5053318;28;20431;-68
2021/08/27 02:14:55;;;;;;;0.30;0.30;;;11.00;99.90;;;;;;5052189;28;20170;-71
2021/08/27 02:17:22;;;;;;;0.30;0.30;;;10.70;99.90;;;;;;5053151;28;20190;-68
2021/08/27 02:19:48;;;;;;;0.30;0.30;;;10.30;99.90;;;;;;5053602;28;20181;-70
2021/08/27 02:22:16;;;;;;;0.30;0.30;;;10.30;99.90;;;;;;5053087;28;20170;-68
2021/08/27 02:24:56;;;;;;;0.30;0.30;;;10.40;99.90;;;;;;5053408;28;20181;-69
2021/08/27 02:27:23;;;;;;;0.30;0.30;;;10.50;99.90;;;;;;5053235;28;20197;-69
2021/08/27 02:29:53;;;;;;;0.30;0.30;;;10.50;99.90;;;;;;5053041;28;20221;-69
2021/08/27 02:32:20;;;;;;;0.30;0.30;;;10.50;99.90;;;;;;5052957;28;20173;-70
2021/08/27 02:34:48;;;;;;;0.30;0.30;;;10.60;99.90;;;;;;5053112;28;20166;-70
2021/08/27 02:37:17;;;;;;;0.30;0.30;;;10.60;99.90;;;;;;5053034;28;20545;-68
2021/08/27 02:39:43;;;;;;;0.30;0.30;;;10.60;99.90;;;;;;5053162;28;20175;-70
2021/08/27 02:42:09;;;;;;;0.30;0.30;;;10.60;99.90;;;;;;5052856;28;20178;-71
2021/08/27 02:44:35;;;;;;;0.30;0.30;;;10.60;99.90;;;;;;5053147;28;20582;-67
2021/08/27 02:47:01;;;;;;;0.30;0.30;;;10.60;99.90;;;;;;5052862;28;20428;-70
2021/08/27 02:49:27;;;;;;;0.30;0.30;;;10.50;99.90;;;;;;5052665;28;20218;-69
2021/08/27 02:52:24;;;;;;;0.30;0.30;;;10.50;99.90;;;;;;5052888;28;20208;-67
2021/08/27 02:55:03;;;;;;;0.30;0.30;;;10.50;99.90;;;;;;5052694;28;20883;-69
2021/08/27 02:57:43;;;;;;;0.30;0.30;;;10.50;99.90;;;;;;5051434;28;20205;-69
2021/08/27 03:00:10;;;;;;;0.30;0.30;;;10.50;99.90;;;;;;5053033;28;20261;-71
2021/08/27 03:02:38;;;;;;;0.30;0.30;;;10.60;99.90;;;;;;5052957;28;20216;-70
2021/08/27 03:05:17;;;;;;;0.30;0.30;;;10.70;99.90;;;;;;5053022;28;20652;-68
2021/08/27 03:07:53;;;;;;;0.30;0.30;;;10.80;99.90;;;;;;5052753;28;20244;-68
2021/08/27 03:10:27;;;;;;;0.30;0.30;;;10.90;99.90;;;;;;5053669;28;20201;-68
2021/08/27 03:13:11;;;;;;;0.30;0.30;;;10.90;99.90;;;;;;5056875;28;20257;-68
2021/08/27 03:15:58;;;;;;;0.30;0.30;;;11.00;99.90;;;;;;5056413;28;20245;-68
2021/08/27 03:18:33;;;;;;;0.30;0.30;;;11.10;99.90;;;;;;5056734;28;20253;-71
2021/08/27 03:21:14;;;;;;;0.30;0.30;;;11.10;99.90;;;;;;5056204;28;20170;-68
2021/08/27 03:23:43;;;;;;;0.30;0.30;;;11.10;99.90;;;;;;5056470;28;20236;-68
2021/08/27 03:26:16;;;;;;;0.30;0.30;;;10.90;99.90;;;;;;5056487;28;20278;-67
2021/08/27 03:28:49;;;;;;;0.30;0.30;;;10.90;99.90;;;;;;5055498;28;20201;-68
2021/08/27 03:31:15;;;;;;;0.30;0.30;;;10.80;99.90;;;;;;5054918;28;20580;-67
2021/08/27 03:33:41;;;;;;;0.30;0.30;;;10.90;99.90;;;;;;5055065;28;20624;-67
2021/08/27 03:36:07;;;;;;;0.30;0.30;;;11.00;99.90;;;;;;5056071;28;20197;-68
2021/08/27 03:38:34;;;;;;;0.30;0.30;;;11.00;99.90;;;;;;5056117;28;20803;-69
2021/08/27 03:41:00;;;;;;;0.30;0.30;;;11.00;99.90;;;;;;5056418;28;20273;-68
2021/08/27 03:43:27;;;;;;;0.30;0.30;;;11.10;99.90;;;;;;5056085;28;20173;-69
2021/08/27 03:45:53;;;;;;;0.30;0.30;;;11.20;99.90;;;;;;5056016;28;20174;-70
2021/08/27 03:48:20;;;;;;;0.30;0.30;;;11.30;99.90;;;;;;5055953;28;20235;-68
2021/08/27 03:50:51;;;;;;;0.30;0.30;;;11.40;99.90;;;;;;5055659;28;20198;-67
2021/08/27 03:53:18;;;;;;;0.30;0.30;;;11.50;99.90;;;;;;5055972;28;20178;-67
2021/08/27 03:55:48;;;;;;;0.40;0.40;;;11.60;99.90;;;;;;5055752;28;20248;-70
2021/08/27 03:58:16;;;;;;;0.30;0.30;;;11.70;99.90;;;;;;5055692;28;20196;-69
2021/08/27 04:00:42;;;;;;;0.30;0.30;;;11.80;99.90;;;;;;5055521;28;20180;-70
2021/08/27 04:03:08;;;;;;;0.30;0.30;;;11.80;99.90;;;;;;5055818;28;20170;-70
2021/08/27 04:05:33;;;;;;;0.30;0.30;;;11.80;99.90;;;;;;5055762;28;20197;-68
2021/08/27 04:07:59;;;;;;;0.30;0.30;;;11.90;99.90;;;;;;5055696;28;20482;-68
2021/08/27 04:10:25;;;;;;;0.30;0.30;;;11.90;99.90;;;;;;5055298;28;20202;-70
2021/08/27 04:12:51;;;;;;;0.30;0.30;;;11.90;99.90;;;;;;5055690;28;20178;-70
2021/08/27 04:15:18;;;;;;;0.30;0.30;;;11.90;99.90;;;;;;5055553;28;20220;-68
2021/08/27 04:17:44;;;;;;;0.30;0.30;;;12.00;99.90;;;;;;5055352;28;20193;-70
2021/08/27 04:20:13;;;;;;;0.30;0.30;;;11.80;99.90;;;;;;5055324;28;20185;-69
2021/08/27 04:22:39;;;;;;;0.30;0.30;;;11.60;99.90;;;;;;5054321;28;20182;-68
2021/08/27 04:25:05;;;;;;;0.30;0.30;;;11.60;99.90;;;;;;5055275;28;20178;-67
2021/08/27 04:27:31;;;;;;;0.30;0.30;;;11.70;99.90;;;;;;5055441;28;20273;-70
2021/08/27 04:29:56;;;;;;;0.30;0.30;;;11.80;99.90;;;;;;5055197;28;20527;-68
2021/08/27 04:32:23;;;;;;;0.30;0.30;;;11.90;99.90;;;;;;5055111;28;20660;-67
2021/08/27 04:34:49;;;;;;;0.30;0.30;;;12.00;99.90;;;;;;5055181;28;20167;-69
2021/08/27 04:37:14;;;;;;;0.30;0.30;;;12.10;99.90;;;;;;5054949;28;20421;-69
2021/08/27 04:39:40;;;;;;;0.30;0.30;;;12.10;99.90;;;;;;5055048;28;20257;-69
2021/08/27 04:42:06;;;;;;;0.30;0.30;;;12.20;99.90;;;;;;5054735;28;20297;-70
2021/08/27 04:44:31;;;;;;;0.30;0.30;;;12.20;99.90;;;;;;5055040;28;20261;-69
2021/08/27 04:46:57;;;;;;;0.30;0.30;;;12.20;99.90;;;;;;5054924;28;20265;-78
2021/08/27 04:49:23;;;;;;;0.40;0.40;;;12.20;99.90;;;;;;5053381;28;20198;-70
2021/08/27 04:51:50;;;;;;;0.30;0.30;;;12.20;99.90;;;;;;5054604;28;20401;-70
2021/08/27 04:54:15;;;;;;;0.30;0.30;;;12.30;99.90;;;;;;5054765;28;20220;-68
2021/08/27 04:56:41;;;;;;;0.30;0.30;;;12.30;99.90;;;;;;5053604;28;20610;-69
2021/08/27 04:59:07;;;;;;;0.30;0.30;;;12.40;99.90;;;;;;5055043;28;20295;-69
2021/08/27 05:01:34;;;;;;;0.30;0.30;;;12.30;99.90;;;;;;5054372;28;20500;-69
2021/08/27 05:04:00;;;;;;;0.30;0.30;;;12.30;99.90;;;;;;5055147;28;20458;-70
2021/08/27 05:06:26;;;;;;;0.30;0.30;;;12.40;99.90;;;;;;5054435;28;20456;-68
2021/08/27 05:08:53;;;;;;;0.30;0.30;;;12.50;99.90;;;;;;5054377;28;20190;-68
2021/08/27 05:11:19;;;;;;;0.30;0.30;;;12.60;99.90;;;;;;5054630;28;20393;-69
2021/08/27 05:13:45;;;;;;;0.30;0.30;;;12.50;99.90;;;;;;5054573;28;20771;-71
2021/08/27 05:16:10;;;;;;;0.30;0.30;;;12.60;99.90;;;;;;5054376;28;20511;-70
2021/08/27 05:18:36;;;;;;;0.30;0.30;;;12.60;99.90;;;;;;5054280;28;20162;-69
2021/08/27 05:21:02;;;;;;;0.30;0.30;;;12.70;99.90;;;;;;5054365;28;20802;-71
2021/08/27 05:23:27;;;;;;;0.30;0.30;;;12.70;99.90;;;;;;5053478;28;20233;-68
2021/08/27 05:25:53;;;;;;;0.30;0.30;;;12.70;99.90;;;;;;5053920;28;20249;-74
2021/08/27 05:28:19;;;;;;;0.30;0.30;;;12.80;99.90;;;;;;5054590;28;20171;-67
2021/08/27 05:30:45;;;;;;;0.30;0.30;;;12.90;99.90;;;;;;5052488;28;20229;-71
2021/08/27 05:33:11;;;;;;;0.30;0.30;;;13.00;99.90;;;;;;5054307;28;20670;-71
2021/08/27 05:35:36;;;;;;;0.30;0.30;;;13.00;99.90;;;;;;5053148;28;20492;-70
2021/08/27 05:38:02;;;;;;;0.30;0.30;;;13.00;99.90;;;;;;5053579;28;20170;-68
2021/08/27 05:40:28;;;;;;;0.30;0.30;;;13.10;99.90;;;;;;5054083;28;20174;-69
2021/08/27 05:42:54;;;;;;;0.30;0.30;;;13.10;99.90;;;;;;5052661;28;20166;-69
2021/08/27 05:45:21;;;;;;;0.30;0.30;;;13.20;99.90;;;;;;5054704;28;20174;-71
2021/08/27 05:47:47;;;;;;;0.30;0.30;;;13.30;99.90;;;;;;5053072;28;20432;-69
2021/08/27 05:50:16;;;;;;;0.30;0.30;;;13.30;99.90;;;;;;5054010;28;20476;-69
2021/08/27 05:52:41;;;;;;;0.30;0.30;;;13.40;99.90;;;;;;5053697;28;20162;-70
2021/08/27 05:55:08;;;;;;;0.30;0.30;;;13.40;99.90;;;;;;5053946;28;20765;-69
2021/08/27 05:57:34;;;;;;;0.30;0.30;;;13.40;99.90;;;;;;5053166;28;20243;-70
2021/08/27 06:00:00;;;;;;;0.30;0.30;;;13.50;99.90;;;;;;5053249;28;20404;-68
2021/08/27 06:02:26;;;;;;;0.33;0.33;;;13.60;99.90;;;;;;5053531;28;20412;-68
2021/08/27 06:04:51;;;;;;;0.30;0.30;;;13.60;99.90;;;;;;5053582;28;20410;-70
2021/08/27 06:07:17;;;;;;;0.30;0.30;;;13.70;99.90;;;;;;5052419;28;20283;-70
2021/08/27 06:09:43;;;;;;;0.30;0.30;;;13.70;99.90;;;;;;5053307;28;20267;-70
2021/08/27 06:12:10;;;;;;;0.30;0.30;;;13.70;99.90;;;;;;5053585;28;20162;-67
2021/08/27 06:14:35;;;;;;;0.30;0.30;;;13.70;99.90;;;;;;5053824;28;20480;-68
2021/08/27 06:17:01;;;;;;;0.30;0.30;;;13.60;99.90;;;;;;5053457;28;20426;-69
2021/08/27 06:19:27;;;;;;;0.30;0.30;;;13.60;99.90;;;;;;5053281;28;20577;-68
2021/08/27 06:21:52;;;;;;;0.30;0.30;;;13.60;99.80;;;;;;5053111;28;20174;-68
2021/08/27 06:24:18;;;;;;;0.30;0.30;;;13.40;99.90;;;;;;5053762;28;20202;-70
2021/08/27 06:26:43;;;;;;;0.30;0.30;;;13.50;99.90;;;;;;5053273;28;20602;-69
2021/08/27 06:29:09;;;;;;;0.30;0.30;;;13.60;99.90;;;;;;5053420;28;20202;-70
2021/08/27 06:31:35;;;;;;;0.30;0.30;;;13.70;99.90;;;;;;5053219;28;20627;-68
2021/08/27 06:34:00;;;;;;;0.30;0.30;;;13.80;99.90;;;;;;5053284;28;20203;-69
2021/08/27 06:36:26;;;;;;;0.30;0.30;;;13.90;99.90;;;;;;5053267;28;20190;-70
2021/08/27 06:38:54;;;;;;;0.30;0.30;;;13.90;99.60;;;;;;5053516;28;20158;-68
2021/08/27 06:41:20;;;;;;;0.30;0.30;;;14.00;99.80;;;;;;5052912;28;20408;-68
2021/08/27 06:43:46;;;;;;;0.30;0.30;;;14.10;99.90;;;;;;5053203;28;20401;-69
2021/08/27 06:46:25;;;;;;;0.30;0.30;;;14.20;99.90;;;;;;5055849;28;20794;-68
2021/08/27 06:48:51;;;;;;;0.30;0.30;;;14.30;99.60;;;;;;5057310;28;20400;-70
2021/08/27 06:51:17;;;;;;;0.30;0.30;;;14.40;98.80;;;;;;5056997;28;20467;-67
2021/08/27 06:53:43;;;;;;;0.40;0.40;;;14.40;98.70;;;;;;5056198;28;20453;-69
2021/08/27 06:56:09;;;;;;;0.50;0.50;;;14.50;98.60;;;;;;5057127;28;20985;-69
2021/08/27 06:58:35;;;;;;;0.30;0.30;;;14.60;99.00;;;;;;5056845;28;20224;-69
2021/08/27 07:01:01;;;;;;;0.30;0.30;;;14.50;99.20;;;;;;5056724;28;20185;-70
2021/08/27 07:03:27;;;;;;;0.30;0.30;;;14.50;99.00;;;;;;5056544;28;20893;-71
2021/08/27 07:05:53;;;;;;;0.40;0.40;;;14.60;99.20;;;;;;5056984;28;20411;-71
2021/08/27 07:08:20;;;;;;;0.30;0.30;;;14.80;99.40;;;;;;5057337;28;20260;-71
2021/08/27 07:10:46;;;;;;;0.30;0.30;;;15.10;99.60;;;;;;5056762;28;20448;-70
2021/08/27 07:13:12;;;;;;;0.30;0.30;;;15.30;99.30;;;;;;5055951;28;20777;-69
2021/08/27 07:15:38;;;;;;;0.30;0.30;;;15.60;98.80;;;;;;5056270;28;20171;-68
2021/08/27 07:18:04;;;;;;;0.30;0.30;;;16.00;98.60;;;;;;5055499;28;20466;-70
2021/08/27 07:20:30;;;;;;;0.30;0.30;;;16.40;97.20;;;;;;5054697;28;20420;-68
2021/08/27 07:22:57;;;;;;;0.30;0.30;;;16.80;95.80;;;;;;5056605;28;20408;-71
2021/08/27 07:25:23;;;;;;;0.30;0.30;;;17.40;95.40;;;;;;5056356;28;20459;-68
2021/08/27 07:27:49;;;;;;;0.30;0.30;;;18.30;91.30;;;;;;5056250;28;20925;-70
2021/08/27 07:30:16;;;;;;;0.30;0.30;;;19.70;90.20;;;;;;5056076;28;20465;-69
2021/08/27 07:32:42;;;;;;;0.40;0.40;;;20.90;82.00;;;;;;5056521;28;20411;-68
2021/08/27 07:35:08;;;;;;;0.30;0.30;;;21.10;78.40;;;;;;5054971;28;21007;-69
2021/08/27 07:37:40;;;;;;;0.30;0.30;;;21.10;76.10;;;;;;5056186;28;20457;-71
2021/08/27 07:40:12;;;;;;;0.30;0.30;;;21.00;75.40;;;;;;5056739;28;20968;-70
2021/08/27 07:42:39;;;;;;;0.30;0.30;;;20.80;77.30;;;;;;5056063;28;20413;-71
2021/08/27 07:45:05;;;;;;;0.30;0.30;;;20.60;75.90;;;;;;5056009;28;20500;-68
2021/08/27 07:47:31;;;;;;;1.90;0.70;;;20.40;77.00;;;;;;5055792;28;20428;-70
2021/08/27 07:49:56;;;;;;;0.30;0.30;;;20.00;74.60;;;;;;5055670;28;20451;-69
2021/08/27 07:52:22;;;;;;;0.30;0.30;;;19.60;76.40;;;;;;5055898;28;20166;-68
2021/08/27 07:54:47;;;;;;;0.30;0.30;;;19.40;77.50;;;;;;5055934;28;20168;-68
2021/08/27 07:57:13;;;;;;;0.30;0.30;;;19.20;78.20;;;;;;5055552;28;20252;-70
2021/08/27 07:59:39;;;;;;;0.30;0.30;;;19.10;79.50;;;;;;5055780;28;20168;-71
2021/08/27 08:02:04;;;;;;;0.30;0.30;;;19.20;83.30;;;;;;5055572;28;20537;-68
2021/08/27 08:04:30;;;;;;;0.30;0.30;;;19.50;81.20;;;;;;5055803;28;20202;-69
2021/08/27 08:06:55;;;;;;;0.30;0.30;;;20.00;78.30;;;;;;5055552;28;20231;-70
2021/08/27 08:09:21;;;;;;;0.30;0.30;;;20.30;77.80;;;;;;5055490;28;20238;-71
2021/08/27 08:11:47;;;;;;;0.30;0.30;;;20.60;79.00;;;;;;5055472;28;20214;-68
2021/08/27 08:14:13;;;;;;;0.30;0.30;;;20.60;78.50;;;;;;5055701;28;20189;-70
2021/08/27 08:16:39;;;;;;;0.30;0.30;;;20.60;81.20;;;;;;5055341;28;20486;-68
2021/08/27 08:19:04;;;;;;;0.30;0.30;;;20.40;79.00;;;;;;5055400;28;20168;-68
2021/08/27 08:21:30;;;;;;;0.30;0.30;;;20.30;79.40;;;;;;5055347;28;20161;-71
2021/08/27 08:23:56;;;;;;;0.30;0.30;;;20.30;82.60;;;;;;5055435;28;20164;-69
2021/08/27 08:26:23;;;;;;;0.30;0.30;;;19.90;82.70;;;;;;5055230;28;20185;-70
2021/08/27 08:28:51;;;;;;;0.30;0.30;;;19.90;81.60;;;;;;5054048;28;20409;-70
2021/08/27 08:31:19;;;;;;;0.30;0.30;;;20.00;84.30;;;;;;5055279;28;20490;-70
2021/08/27 08:33:47;;;;;;;0.30;0.30;;;20.10;80.00;;;;;;5055206;28;20427;-69
2021/08/27 08:36:12;;;;;;;0.30;0.30;;;20.30;81.20;;;;;;5055233;28;20423;-69
2021/08/27 08:38:38;;;;;;;0.30;0.30;;;20.40;80.60;;;;;;5054997;28;20404;-68
2021/08/27 08:41:04;;;;;;;0.30;0.30;;;20.50;79.00;;;;;;5054840;28;20177;-71
2021/08/27 08:43:31;;;;;;;0.30;0.30;;;20.80;78.50;;;;;;5055371;28;20259;-69
2021/08/27 08:45:57;;;;;;;0.30;0.30;;;20.70;79.80;;;;;;5054910;28;20901;-69
2021/08/27 08:48:24;;;;;;;0.30;0.30;;;20.60;79.10;;;;;;5053547;28;20767;-68
2021/08/27 08:50:50;;;;;;;0.30;0.30;;;20.30;80.40;;;;;;5054687;28;20513;-70
2021/08/27 08:53:17;;;;;;;0.30;0.30;;;20.20;83.20;;;;;;5054909;28;20825;-69
2021/08/27 08:55:43;;;;;;;0.30;0.30;;;20.00;80.40;;;;;;5054659;28;20407;-68
2021/08/27 08:58:09;;;;;;;0.30;0.30;;;20.00;83.80;;;;;;5054570;28;20522;-67
2021/08/27 09:00:37;;;;;;;0.30;0.30;;;19.90;81.30;;;;;;5054650;28;20501;-68
2021/08/27 09:03:04;;;;;;;0.40;0.40;;;20.00;81.90;;;;;;5054808;28;20268;-70
2021/08/27 09:05:30;;;;;;;0.30;0.30;;;20.20;80.60;;;;;;5054565;28;20979;-69
2021/08/27 09:07:56;;;;;;;0.30;0.30;;;20.30;77.90;;;;;;5055054;28;20511;-70
2021/08/27 09:17:06;;;;;;;0.30;0.30;;;21.40;77.80;;;;;;5054584;28;20437;-68
2021/08/27 09:26:35;;;;;;;0.30;0.30;;;22.60;70.40;;;;;;5054203;28;20400;-71
2021/08/27 09:29:01;;;;;;;0.30;0.30;;;22.70;73.60;;;;;;5054048;28;20401;-68
2021/08/27 09:31:40;;;;;;;0.30;0.30;;;23.10;73.00;;;;;;5053915;28;20908;-69
2021/08/27 09:34:06;;;;;;;0.30;0.30;;;24.00;70.90;;;;;;5054265;28;20575;-67
2021/08/27 09:36:33;;;;;;;0.30;0.30;;;25.20;65.30;;;;;;5054004;28;20425;-67
2021/08/27 09:39:06;;;;;;;0.30;0.30;;;25.50;63.80;;;;;;5053905;28;20483;-69
2021/08/27 09:41:32;;;;;;;0.30;0.30;;;25.00;64.10;;;;;;5053760;28;20896;-68
2021/08/27 09:43:58;;;;;;;0.30;0.30;;;24.00;64.10;;;;;;5054120;28;20421;-70
2021/08/27 09:46:45;;;;;;;0.30;0.30;;;23.00;67.30;;;;;;5053637;28;20243;-69
2021/08/27 09:49:33;;;;;;;0.30;0.30;;;22.80;70.10;;;;;;5053677;28;20153;-70
2021/08/27 09:52:00;;;;;;;0.30;0.30;;;24.60;67.30;;;;;;5053702;28;20391;-70
2021/08/27 09:54:31;;;;;;;0.30;0.30;;;25.80;62.70;;;;;;5053708;28;20397;-68
2021/08/27 09:56:59;;;;;;;0.30;0.30;;;27.30;57.50;;;;;;5053337;28;20389;-68
2021/08/27 09:59:38;;;;;;;0.30;0.30;;;28.10;56.00;;;;;;5053676;28;20419;-66
2021/08/27 10:02:06;;;;;;;0.40;0.40;;;28.80;55.50;;;;;;5053333;28;20396;-67
2021/08/27 10:04:32;;;;;;;0.30;0.30;;;29.20;52.70;;;;;;5053521;28;20832;-68
2021/08/27 10:06:58;;;;;;;1.17;1.07;;;28.40;50.00;;;;;;5053411;28;20455;-68
2021/08/27 10:09:42;;;;;;;0.30;0.30;;;27.20;52.20;;;;;;5053428;28;20890;-65
2021/08/27 10:12:08;;;;;;;0.30;0.30;;;25.80;54.90;;;;;;5053174;28;20405;-66
2021/08/27 10:14:34;;;;;;;0.30;0.30;;;24.20;56.70;;;;;;5053483;28;20386;-67
2021/08/27 10:17:02;;;;;;;0.30;0.30;;;23.20;59.00;;;;;;5053426;28;20479;-67
2021/08/27 10:19:28;;;;;;;0.30;0.30;;;22.40;61.90;;;;;;5052614;28;20420;-64
2021/08/27 10:21:54;;;;;;;0.30;0.30;;;22.30;66.80;;;;;;5052937;28;20402;-66
2021/08/27 10:24:20;;;;;;;0.30;0.30;;;22.30;61.30;;;;;;5053250;28;20925;-65
2021/08/27 10:26:45;;;;;;;0.30;0.30;;;22.70;61.10;;;;;;5053177;28;20425;-66
2021/08/27 10:29:11;;;;;;;0.30;0.30;;;23.10;58.90;;;;;;5053074;28;20187;-64
2021/08/27 10:31:45;;;;;;;0.30;0.30;;;22.70;58.60;;;;;;5052919;28;20195;-67
2021/08/27 10:34:11;;;;;;;0.30;0.30;;;22.10;58.30;;;;;;5053253;28;20400;-64
2021/08/27 10:36:39;;;;;;;0.30;0.30;;;21.30;60.20;;;;;;5053136;28;20494;-68
2021/08/27 10:39:06;;;;;;;0.30;0.30;;;20.70;65.70;;;;;;5053088;28;20408;-68
2021/08/27 10:41:36;;;;;;;0.30;0.30;;;20.30;68.00;;;;;;5052764;28;20435;-65
2021/08/27 10:44:20;;;;;;;0.30;0.30;;;20.20;68.60;;;;;;5053245;28;20399;-68
2021/08/27 10:46:48;;;;;;;0.30;0.30;;;20.90;65.20;;;;;;5053017;28;20515;-66
2021/08/27 10:49:15;;;;;;;0.30;0.30;;;20.80;64.10;;;;;;5053134;28;20407;-64
2021/08/27 10:51:44;;;;;;;0.30;0.30;;;20.40;62.00;;;;;;5052785;28;20415;-68
2021/08/27 10:54:12;;;;;;;0.40;0.40;;;20.40;65.90;;;;;;5053148;28;20396;-65
2021/08/27 10:56:54;;;;;;;0.30;0.30;;;20.50;67.20;;;;;;5051282;28;20442;-67
2021/08/27 10:59:22;;;;;;;0.30;0.30;;;20.70;63.00;;;;;;5051309;28;20506;-64
2021/08/27 11:02:00;;;;;;;0.30;0.30;;;21.30;66.90;;;;;;5051307;28;20475;-65
2021/08/27 11:04:39;;;;;;;0.30;0.30;;;21.60;63.30;;;;;;5051774;28;20495;-65
2021/08/27 11:07:20;;;;;;;0.30;0.30;;;21.40;63.00;;;;;;5052940;28;20913;-67
2021/08/27 11:10:07;;;;;;;0.30;0.30;;;21.10;65.20;;;;;;5052847;28;20490;-66
2021/08/27 11:12:33;;;;;;;0.30;0.30;;;21.00;68.00;;;;;;5052868;28;20392;-67
2021/08/27 11:15:32;;;;;;;0.30;0.30;;;21.30;67.90;;;;;;5052916;28;20434;-66
2021/08/27 11:18:17;;;;;;;0.30;0.30;;;21.50;66.20;;;;;;5052849;28;20477;-67
2021/08/27 11:20:43;;;;;;;0.30;0.30;;;21.70;65.50;;;;;;5052790;28;20396;-68
2021/08/27 11:23:10;;;;;;;0.30;0.30;;;21.80;63.40;;;;;;5053019;28;20898;-65
2021/08/27 11:25:41;;;;;;;0.30;0.30;;;22.20;63.70;;;;;;5053065;28;20395;-67
2021/08/27 11:28:09;;;;;;;0.30;0.30;;;22.20;63.80;;;;;;5053171;28;20382;-66
2021/08/27 11:30:36;;;;;;;0.30;0.30;;;22.30;66.40;;;;;;5052637;28;20505;-66
2021/08/27 11:33:01;;;;;;;0.30;0.30;;;22.40;64.60;;;;;;5056458;28;20435;-66
2021/08/27 11:35:28;;;;;;;0.30;0.30;;;22.30;63.90;;;;;;5056709;28;20481;-66
2021/08/27 11:38:08;;;;;;;0.30;0.30;;;22.00;64.90;;;;;;5056553;28;20680;-65
2021/08/27 11:40:33;;;;;;;0.30;0.30;;;21.70;65.40;;;;;;5056297;28;20405;-64
2021/08/27 11:42:59;;;;;;;0.30;0.30;;;21.00;64.50;;;;;;5056487;28;20504;-65
2021/08/27 11:45:27;;;;;;;0.30;0.30;;;20.40;68.10;;;;;;5056182;28;20817;-64
2021/08/27 11:48:00;;;;;;;0.30;0.30;;;19.90;69.50;;;;;;5056065;28;20186;-66
2021/08/27 11:50:50;;;;;;;0.30;0.30;;;19.80;69.80;;;;;;5054632;28;20451;-67
2021/08/27 11:53:16;;;;;;;0.30;0.30;;;19.60;70.00;;;;;;5055971;28;20757;-65
2021/08/27 11:55:46;;;;;;;0.30;0.30;;;19.30;71.20;;;;;;5055888;28;20396;-67
2021/08/27 11:58:12;;;;;;;0.30;0.30;;;19.00;72.30;;;;;;5055710;28;20428;-67
2021/08/27 12:00:43;;;;;;;0.30;0.30;;;19.00;73.70;;;;;;5056174;28;20404;-66
2021/08/27 12:03:12;;;;;;;0.30;0.30;;;18.90;70.90;;;;;;5056013;28;20802;-66
2021/08/27 12:05:42;;;;;;;0.30;0.30;;;19.10;75.50;;;;;;5055922;28;20456;-67
2021/08/27 12:08:09;;;;;;;0.30;0.30;;;19.20;73.40;;;;;;5055643;28;20850;-67
2021/08/27 12:10:37;;;;;;;0.30;0.30;;;19.40;71.60;;;;;;5055703;28;20486;-66
2021/08/27 12:13:04;;;;;;;0.30;0.30;;;19.70;69.70;;;;;;5054420;28;20900;-68
2021/08/27 12:15:37;;;;;;;0.30;0.30;;;19.90;69.50;;;;;;5054570;28;20405;-67
2021/08/27 12:18:14;;;;;;;0.30;0.30;;;19.90;69.20;;;;;;5055309;28;20419;-66
2021/08/27 12:20:48;;;;;;;0.30;0.30;;;19.90;69.10;;;;;;5055585;28;20922;-68
2021/08/27 12:23:20;;;;;;;0.30;0.30;;;19.80;70.50;;;;;;5054444;28;20405;-66
2021/08/27 12:25:53;;;;;;;0.30;0.30;;;19.90;69.50;;;;;;5055377;28;20412;-65
2021/08/27 12:28:19;;;;;;;0.30;0.30;;;20.00;69.50;;;;;;5055477;28;20795;-68
2021/08/27 12:30:49;;;;;;;0.30;0.30;;;20.00;68.40;;;;;;5055136;28;20459;-69
2021/08/27 12:33:17;;;;;;;0.30;0.30;;;19.70;70.20;;;;;;5055429;28;20464;-69
2021/08/27 12:35:43;;;;;;;0.30;0.30;;;19.50;74.00;;;;;;5055110;28;20468;-67
2021/08/27 12:38:09;;;;;;;0.30;0.30;;;19.40;68.90;;;;;;5053673;28;20939;-68
2021/08/27 12:40:36;;;;;;;0.30;0.30;;;19.40;70.40;;;;;;5055070;28;20412;-69
2021/08/27 12:43:06;;;;;;;0.30;0.30;;;19.20;69.30;;;;;;5054244;28;20403;-66
2021/08/27 12:45:42;;;;;;;0.30;0.30;;;19.10;69.70;;;;;;5055057;28;20403;-66
2021/08/27 12:48:09;;;;;;;0.30;0.30;;;19.10;69.00;;;;;;5054880;28;20407;-68
2021/08/27 12:50:54;;;;;;;0.30;0.30;;;19.00;73.50;;;;;;5054487;28;20442;-69
2021/08/27 12:53:29;;;;;;;0.30;0.30;;;19.00;68.60;;;;;;5054976;28;20435;-66
2021/08/27 12:56:18;;;;;;;0.30;0.30;;;19.10;70.40;;;;;;5053499;28;20406;-66
2021/08/27 12:58:44;;;;;;;0.30;0.30;;;19.00;71.30;;;;;;5054627;28;20485;-67
2021/08/27 13:01:19;;;;;;;0.30;0.30;;;18.90;70.10;;;;;;5054426;28;20402;-69
2021/08/27 13:03:59;;;;;;;0.30;0.30;;;18.90;70.70;;;;;;5054672;28;20460;-66
2021/08/27 13:06:39;;;;;;;0.30;0.30;;;18.90;70.00;;;;;;5054838;28;20481;-66
2021/08/27 13:09:34;;;;;;;0.30;0.30;;;18.60;73.30;;;;;;5054651;28;20410;-67
2021/08/27 13:12:00;;;;;;;0.30;0.30;;;18.50;70.40;;;;;;5052404;28;20883;-70